Aérodrome :







RETROUVEZ-NOUS SUR...

 
LOGIN :

S'inscrire | Disclaimer

   EN    FR    IT 

 









Légende :    VFR   VFR Marginal   IFR   IFR Intensif   IFR Très Intensif
Visi : 
Plafond : 
>= 8 km
>= 3000ft
5 à 8 km
1000 à 3000 ft
1500m à 5 km
500 à 1000 ft
800 à 1500m
200 à 500 ft
< 800m
< 200 ft
Symboles :   Orages  Brouillard  Fortes neiges  Fortes précipitations  Vent > 20 kt






- Altitude de l'aérodrome : 192 ft
- Code IATA : BGR


KBGR - Bangor International

DERNIER METAR :
  • 261653Z 01006KT 10SM FEW080 BKN110 04/M04 A3005 RMK AO2 SLP177 T00441039

METARs EXPIRÉS :
  • 261553Z 35009KT 10SM FEW080 BKN110 03/M04 A3007 RMK AO2 SLP183 T00331044
  • 261453Z 01007KT 10SM BKN080 03/M04 A3006 RMK AO2 SLP179 T00281044 50010

TAF KBGR
Valide du 26 à 12h jusqu'au 27 à 12h UTC


261122Z 2612/2712 02005KT P6SM SCT045
FM270300 05005KT P6SM BKN025
FM270600 07006KT P6SM VCSH OVC015
FM271100 08012G20KT 3SM -RASN OVC007 WS020/11040KT



MET'MAP, la Météo Aéronautique d'un coup d'oeil ! - Copyright ORBIFLY Décembre 2007 - Disclaimer

ORBIFLY MET'MAP TEAM :

Programmation & Développement : Alexandra Zaïnal
Sur une idée originale de : Baudouin d'Aumeries
Assistance à la programmation : Marc-Olivier Méhu
Soutien technique & logistique : Manuel Goepfert

Contact : metmap@orbifly.com




SOURCES & CREDITS :

   NOAA